sensor_id;sensor_type;location;lat;lon;timestamp;pressure;altitude;pressure_sealevel;temperature;humidity
20105;BME280;10212;42.714;23.310;2023-04-26T02:39:41;94201.50;;;6.66;100.00
20105;BME280;10212;42.714;23.310;2023-04-26T02:49:41;94207.47;;;6.80;100.00
20105;BME280;10212;42.714;23.310;2023-04-26T02:59:42;94189.09;;;6.88;100.00
20105;BME280;10212;42.714;23.310;2023-04-26T03:09:43;94188.91;;;6.83;100.00
20105;BME280;10212;42.714;23.310;2023-04-26T03:19:43;94196.09;;;6.81;100.00
20105;BME280;10212;42.714;23.310;2023-04-26T03:29:44;94187.69;;;7.06;100.00
20105;BME280;10212;42.714;23.310;2023-04-26T03:39:44;94184.31;;;6.92;100.00
20105;BME280;10212;42.714;23.310;2023-04-26T03:49:45;94200.25;;;6.96;100.00
20105;BME280;10212;42.714;23.310;2023-04-26T03:59:45;94211.63;;;6.88;100.00
20105;BME280;10212;42.714;23.310;2023-04-26T04:09:46;94220.19;;;7.09;100.00
20105;BME280;10212;42.714;23.310;2023-04-26T04:19:46;94224.34;;;7.30;100.00
20105;BME280;10212;42.714;23.310;2023-04-26T04:29:47;94226.06;;;7.43;100.00
20105;BME280;10212;42.714;23.310;2023-04-26T04:39:47;94239.97;;;7.63;100.00
20105;BME280;10212;42.714;23.310;2023-04-26T04:49:48;94234.22;;;8.00;100.00
20105;BME280;10212;42.714;23.310;2023-04-26T04:59:49;94229.53;;;8.22;100.00
20105;BME280;10212;42.714;23.310;2023-04-26T05:09:50;94235.78;;;8.47;100.00
20105;BME280;10212;42.714;23.310;2023-04-26T05:19:50;94235.34;;;8.82;98.15
20105;BME280;10212;42.714;23.310;2023-04-26T05:29:51;94243.81;;;8.71;98.07
20105;BME280;10212;42.714;23.310;2023-04-26T05:39:51;94244.50;;;8.85;97.49
20105;BME280;10212;42.714;23.310;2023-04-26T05:49:52;94260.91;;;9.11;95.32
20105;BME280;10212;42.714;23.310;2023-04-26T05:59:53;94267.09;;;9.35;94.78
20105;BME280;10212;42.714;23.310;2023-04-26T06:09:53;94261.75;;;9.30;96.26
20105;BME280;10212;42.714;23.310;2023-04-26T06:19:54;94268.25;;;9.77;94.76
20105;BME280;10212;42.714;23.310;2023-04-26T06:29:57;94261.97;;;10.16;92.77
20105;BME280;10212;42.714;23.310;2023-04-26T06:39:59;94253.59;;;11.11;87.88
20105;BME280;10212;42.714;23.310;2023-04-26T06:50:03;94272.47;;;10.70;78.96
20105;BME280;10212;42.714;23.310;2023-04-26T07:00:04;94270.19;;;10.31;82.66
20105;BME280;10212;42.714;23.310;2023-04-26T07:10:06;94268.44;;;10.75;81.17
20105;BME280;10212;42.714;23.310;2023-04-26T07:20:07;94277.56;;;10.53;81.34
20105;BME280;10212;42.714;23.310;2023-04-26T07:30:08;94288.31;;;10.88;78.57
20105;BME280;10212;42.714;23.310;2023-04-26T07:40:10;94280.91;;;10.42;76.26
20105;BME280;10212;42.714;23.310;2023-04-26T07:50:11;94295.66;;;10.48;73.96
20105;BME280;10212;42.714;23.310;2023-04-26T08:00:12;94294.16;;;10.71;72.20
20105;BME280;10212;42.714;23.310;2023-04-26T08:10:12;94293.66;;;11.05;71.27
20105;BME280;10212;42.714;23.310;2023-04-26T08:20:13;94291.91;;;10.98;72.46
20105;BME280;10212;42.714;23.310;2023-04-26T08:30:13;94281.72;;;10.97;70.42
20105;BME280;10212;42.714;23.310;2023-04-26T08:40:22;94282.75;;;11.56;67.93
20105;BME280;10212;42.714;23.310;2023-04-26T08:50:24;94286.84;;;11.52;67.94
20105;BME280;10212;42.714;23.310;2023-04-26T09:00:24;94294.69;;;11.40;65.86
20105;BME280;10212;42.714;23.310;2023-04-26T09:10:25;94294.44;;;11.53;65.72
20105;BME280;10212;42.714;23.310;2023-04-26T09:20:27;94301.88;;;12.10;62.10
20105;BME280;10212;42.714;23.310;2023-04-26T09:30:31;94300.66;;;12.29;60.73
20105;BME280;10212;42.714;23.310;2023-04-26T09:40:38;94289.94;;;12.43;60.22
20105;BME280;10212;42.714;23.310;2023-04-26T09:50:40;94282.38;;;12.59;58.13
20105;BME280;10212;42.714;23.310;2023-04-26T10:00:40;94285.47;;;12.26;56.54
20105;BME280;10212;42.714;23.310;2023-04-26T10:10:42;94283.16;;;12.59;53.96
20105;BME280;10212;42.714;23.310;2023-04-26T10:20:45;94278.34;;;12.68;52.64
20105;BME280;10212;42.714;23.310;2023-04-26T10:30:55;94276.03;;;12.72;52.43
20105;BME280;10212;42.714;23.310;2023-04-26T10:41:35;94281.59;;;12.75;50.51
20105;BME280;10212;42.714;23.310;2023-04-26T10:51:35;94268.22;;;12.89;49.18
20105;BME280;10212;42.714;23.310;2023-04-26T11:01:36;94257.09;;;12.82;48.81
20105;BME280;10212;42.714;23.310;2023-04-26T11:11:50;94256.22;;;13.27;47.19
20105;BME280;10212;42.714;23.310;2023-04-26T11:21:52;94264.16;;;12.98;48.22
20105;BME280;10212;42.714;23.310;2023-04-26T11:31:54;94265.75;;;13.17;48.71
20105;BME280;10212;42.714;23.310;2023-04-26T11:42:08;94261.84;;;13.76;45.93
20105;BME280;10212;42.714;23.310;2023-04-26T11:52:17;94255.63;;;14.05;45.58
20105;BME280;10212;42.714;23.310;2023-04-26T12:02:22;94265.31;;;13.82;46.70
20105;BME280;10212;42.714;23.310;2023-04-26T12:12:23;94259.13;;;13.88;46.57
20105;BME280;10212;42.714;23.310;2023-04-26T12:22:23;94268.66;;;13.99;44.99
20105;BME280;10212;42.714;23.310;2023-04-26T12:32:24;94255.38;;;14.06;45.63
20105;BME280;10212;42.714;23.310;2023-04-26T12:42:24;94234.81;;;13.70;46.92
20105;BME280;10212;42.714;23.310;2023-04-26T12:52:25;94241.09;;;12.95;47.88
20105;BME280;10212;42.714;23.310;2023-04-26T13:02:27;94256.06;;;13.17;48.02
20105;BME280;10212;42.714;23.310;2023-04-26T13:12:28;94267.47;;;13.45;48.20
20105;BME280;10212;42.714;23.310;2023-04-26T13:22:28;94275.00;;;12.56;46.61
20105;BME280;10212;42.714;23.310;2023-04-26T13:32:29;94284.97;;;12.41;48.18
20105;BME280;10212;42.714;23.310;2023-04-26T13:42:29;94300.66;;;12.29;51.04
20105;BME280;10212;42.714;23.310;2023-04-26T13:52:32;94318.50;;;11.79;52.25
20105;BME280;10212;42.714;23.310;2023-04-26T14:02:32;94326.13;;;11.33;54.06
20105;BME280;10212;42.714;23.310;2023-04-26T14:12:33;94349.13;;;11.00;56.01
20105;BME280;10212;42.714;23.310;2023-04-26T14:22:34;94352.94;;;10.85;57.85
20105;BME280;10212;42.714;23.310;2023-04-26T14:32:34;94363.47;;;10.60;59.62
20105;BME280;10212;42.714;23.310;2023-04-26T14:42:35;94378.84;;;10.68;59.27
20105;BME280;10212;42.714;23.310;2023-04-26T14:52:36;94378.47;;;10.65;60.26
20105;BME280;10212;42.714;23.310;2023-04-26T15:02:36;94403.22;;;10.36;62.71
20105;BME280;10212;42.714;23.310;2023-04-26T15:12:37;94422.22;;;10.25;63.99
20105;BME280;10212;42.714;23.310;2023-04-26T15:22:37;94433.50;;;10.19;64.18
20105;BME280;10212;42.714;23.310;2023-04-26T15:32:38;94446.03;;;10.10;64.58
20105;BME280;10212;42.714;23.310;2023-04-26T15:42:38;94456.78;;;10.13;65.06
20105;BME280;10212;42.714;23.310;2023-04-26T15:52:39;94467.03;;;10.08;65.87
20105;BME280;10212;42.714;23.310;2023-04-26T16:02:40;94474.25;;;9.87;67.06
20105;BME280;10212;42.714;23.310;2023-04-26T16:12:43;94490.31;;;9.84;68.05
20105;BME280;10212;42.714;23.310;2023-04-26T16:22:43;94500.06;;;9.63;68.64
20105;BME280;10212;42.714;23.310;2023-04-26T16:32:44;94519.28;;;9.62;70.00
20105;BME280;10212;42.714;23.310;2023-04-26T16:42:44;94521.06;;;9.36;71.17
20105;BME280;10212;42.714;23.310;2023-04-26T16:52:45;94535.94;;;9.22;72.27
20105;BME280;10212;42.714;23.310;2023-04-26T17:02:47;94549.13;;;9.27;72.36
20105;BME280;10212;42.714;23.310;2023-04-26T17:12:48;94562.78;;;9.16;72.65
20105;BME280;10212;42.714;23.310;2023-04-26T17:22:49;94582.00;;;9.15;72.35
20105;BME280;10212;42.714;23.310;2023-04-26T17:32:50;94609.63;;;9.09;72.63
20105;BME280;10212;42.714;23.310;2023-04-26T17:42:50;94606.44;;;9.07;72.38
20105;BME280;10212;42.714;23.310;2023-04-26T17:52:51;94617.84;;;8.99;72.30
20105;BME280;10212;42.714;23.310;2023-04-26T18:02:51;94626.88;;;8.90;72.67
20105;BME280;10212;42.714;23.310;2023-04-26T18:12:53;94647.09;;;8.95;72.66
20105;BME280;10212;42.714;23.310;2023-04-26T18:22:53;94674.47;;;9.11;71.71
20105;BME280;10212;42.714;23.310;2023-04-26T18:32:54;94679.28;;;9.07;71.66
20105;BME280;10212;42.714;23.310;2023-04-26T18:42:54;94689.66;;;8.93;71.60
20105;BME280;10212;42.714;23.310;2023-04-26T18:52:55;94704.50;;;8.93;71.57
20105;BME280;10212;42.714;23.310;2023-04-26T19:02:55;94706.09;;;8.87;71.50
20105;BME280;10212;42.714;23.310;2023-04-26T19:12:56;94711.88;;;8.76;70.97
20105;BME280;10212;42.714;23.310;2023-04-26T19:22:56;94719.09;;;8.67;71.11
20105;BME280;10212;42.714;23.310;2023-04-26T19:32:57;94724.28;;;8.60;70.36
20105;BME280;10212;42.714;23.310;2023-04-26T19:42:57;94732.09;;;8.60;70.32
20105;BME280;10212;42.714;23.310;2023-04-26T19:52:58;94732.25;;;8.52;69.70
20105;BME280;10212;42.714;23.310;2023-04-26T20:02:58;94744.03;;;8.48;70.05
20105;BME280;10212;42.714;23.310;2023-04-26T20:12:59;94751.81;;;8.41;70.44
20105;BME280;10212;42.714;23.310;2023-04-26T20:22:59;94756.81;;;8.42;70.24
20105;BME280;10212;42.714;23.310;2023-04-26T20:33:00;94762.59;;;8.24;70.04
20105;BME280;10212;42.714;23.310;2023-04-26T20:43:01;94761.16;;;8.22;70.08
20105;BME280;10212;42.714;23.310;2023-04-26T20:53:01;94776.31;;;8.11;68.96
20105;BME280;10212;42.714;23.310;2023-04-26T21:03:03;94788.50;;;8.11;68.01
20105;BME280;10212;42.714;23.310;2023-04-26T21:13:03;94793.91;;;8.09;68.11
20105;BME280;10212;42.714;23.310;2023-04-26T21:23:04;94803.47;;;8.08;66.75
20105;BME280;10212;42.714;23.310;2023-04-26T21:33:04;94815.19;;;7.91;66.61
20105;BME280;10212;42.714;23.310;2023-04-26T21:43:05;94828.13;;;7.84;66.43
20105;BME280;10212;42.714;23.310;2023-04-26T21:53:06;94831.50;;;7.78;65.99
20105;BME280;10212;42.714;23.310;2023-04-26T22:03:06;94839.28;;;7.78;64.82
20105;BME280;10212;42.714;23.310;2023-04-26T22:13:06;94848.41;;;7.67;64.11
20105;BME280;10212;42.714;23.310;2023-04-26T22:23:07;94857.56;;;7.63;64.17
20105;BME280;10212;42.714;23.310;2023-04-26T22:33:08;94863.44;;;7.43;63.95
20105;BME280;10212;42.714;23.310;2023-04-26T22:43:10;94873.72;;;7.36;63.58
20105;BME280;10212;42.714;23.310;2023-04-26T22:53:10;94876.47;;;7.28;63.65
20105;BME280;10212;42.714;23.310;2023-04-26T23:03:10;94883.28;;;7.07;63.12
20105;BME280;10212;42.714;23.310;2023-04-26T23:13:11;94878.47;;;7.04;62.47
20105;BME280;10212;42.714;23.310;2023-04-26T23:23:13;94872.22;;;6.98;62.38
20105;BME280;10212;42.714;23.310;2023-04-26T23:33:13;94874.25;;;7.03;61.57
20105;BME280;10212;42.714;23.310;2023-04-26T23:43:14;94867.84;;;6.77;62.07
20105;BME280;10212;42.714;23.310;2023-04-26T23:53:14;94881.38;;;6.57;61.68
